sensor_id;sensor_type;location;lat;lon;timestamp;pressure;altitude;pressure_sealevel;temperature;humidity
52949;BME280;38812;50.942;3.644;2023-04-26T00:01:28;101995.63;;;1.03;100.00
52949;BME280;38812;50.942;3.644;2023-04-26T00:03:54;102007.72;;;1.05;100.00
52949;BME280;38812;50.942;3.644;2023-04-26T00:06:20;102016.09;;;1.21;100.00
52949;BME280;38812;50.942;3.644;2023-04-26T00:08:45;102016.97;;;1.22;100.00
52949;BME280;38812;50.942;3.644;2023-04-26T00:11:11;102020.91;;;1.36;100.00
52949;BME280;38812;50.942;3.644;2023-04-26T00:13:36;101997.75;;;1.15;100.00
52949;BME280;38812;50.942;3.644;2023-04-26T00:16:03;102010.03;;;1.21;100.00
52949;BME280;38812;50.942;3.644;2023-04-26T00:18:28;102006.44;;;1.17;100.00
52949;BME280;38812;50.942;3.644;2023-04-26T00:20:54;102011.13;;;1.03;100.00
52949;BME280;38812;50.942;3.644;2023-04-26T00:23:19;102006.78;;;1.02;100.00
52949;BME280;38812;50.942;3.644;2023-04-26T00:25:45;102010.44;;;1.08;100.00
52949;BME280;38812;50.942;3.644;2023-04-26T00:28:10;102007.22;;;0.91;100.00
52949;BME280;38812;50.942;3.644;2023-04-26T00:30:36;102006.88;;;0.82;100.00
52949;BME280;38812;50.942;3.644;2023-04-26T00:33:05;102002.81;;;0.66;100.00
52949;BME280;38812;50.942;3.644;2023-04-26T00:35:30;102005.66;;;0.72;100.00
52949;BME280;38812;50.942;3.644;2023-04-26T00:37:55;102012.94;;;0.82;100.00
52949;BME280;38812;50.942;3.644;2023-04-26T00:40:21;102003.31;;;0.78;100.00
52949;BME280;38812;50.942;3.644;2023-04-26T00:42:46;102009.88;;;0.70;100.00
52949;BME280;38812;50.942;3.644;2023-04-26T00:45:13;102004.81;;;0.73;100.00
52949;BME280;38812;50.942;3.644;2023-04-26T00:47:39;102001.09;;;0.65;100.00
52949;BME280;38812;50.942;3.644;2023-04-26T00:50:06;102005.31;;;0.63;100.00
52949;BME280;38812;50.942;3.644;2023-04-26T00:52:32;102007.31;;;0.48;100.00
52949;BME280;38812;50.942;3.644;2023-04-26T00:54:57;102012.41;;;0.46;100.00
52949;BME280;38812;50.942;3.644;2023-04-26T00:57:23;102013.16;;;0.42;100.00
52949;BME280;38812;50.942;3.644;2023-04-26T00:59:49;102013.72;;;0.35;100.00
52949;BME280;38812;50.942;3.644;2023-04-26T01:02:14;102019.47;;;0.28;100.00
52949;BME280;38812;50.942;3.644;2023-04-26T01:04:40;102012.47;;;0.25;100.00
52949;BME280;38812;50.942;3.644;2023-04-26T01:07:06;101995.53;;;0.11;100.00
52949;BME280;38812;50.942;3.644;2023-04-26T01:09:32;102011.44;;;0.20;100.00
52949;BME280;38812;50.942;3.644;2023-04-26T01:11:58;101998.31;;;0.16;100.00
52949;BME280;38812;50.942;3.644;2023-04-26T01:14:24;102010.16;;;0.11;100.00
52949;BME280;38812;50.942;3.644;2023-04-26T01:16:51;102000.47;;;0.05;100.00
52949;BME280;38812;50.942;3.644;2023-04-26T01:19:17;102011.06;;;0.11;100.00
52949;BME280;38812;50.942;3.644;2023-04-26T01:21:43;101992.41;;;0.18;100.00
52949;BME280;38812;50.942;3.644;2023-04-26T01:24:09;102000.84;;;0.14;100.00
52949;BME280;38812;50.942;3.644;2023-04-26T01:26:35;101998.94;;;0.10;100.00
52949;BME280;38812;50.942;3.644;2023-04-26T01:29:12;102004.53;;;-0.02;100.00
52949;BME280;38812;50.942;3.644;2023-04-26T01:31:37;102003.38;;;-0.08;100.00
52949;BME280;38812;50.942;3.644;2023-04-26T01:34:02;102014.41;;;-0.12;100.00
52949;BME280;38812;50.942;3.644;2023-04-26T01:36:28;102010.25;;;-0.09;100.00
52949;BME280;38812;50.942;3.644;2023-04-26T01:38:53;102007.66;;;0.12;100.00
52949;BME280;38812;50.942;3.644;2023-04-26T01:41:18;102003.25;;;0.10;100.00
52949;BME280;38812;50.942;3.644;2023-04-26T01:43:44;102000.28;;;0.00;100.00
52949;BME280;38812;50.942;3.644;2023-04-26T01:46:09;101993.41;;;0.01;100.00
52949;BME280;38812;50.942;3.644;2023-04-26T01:48:35;101992.16;;;0.12;100.00
52949;BME280;38812;50.942;3.644;2023-04-26T01:51:00;101988.50;;;0.07;100.00
52949;BME280;38812;50.942;3.644;2023-04-26T01:53:25;101989.13;;;0.02;100.00
52949;BME280;38812;50.942;3.644;2023-04-26T01:55:51;101982.84;;;-0.05;100.00
52949;BME280;38812;50.942;3.644;2023-04-26T01:58:16;101978.78;;;0.02;100.00
52949;BME280;38812;50.942;3.644;2023-04-26T02:00:41;101977.91;;;0.01;100.00
52949;BME280;38812;50.942;3.644;2023-04-26T02:03:07;101973.88;;;0.08;100.00
52949;BME280;38812;50.942;3.644;2023-04-26T02:05:32;101974.75;;;0.08;100.00
52949;BME280;38812;50.942;3.644;2023-04-26T02:07:57;101971.72;;;0.18;100.00
52949;BME280;38812;50.942;3.644;2023-04-26T02:10:23;101966.88;;;0.27;100.00
52949;BME280;38812;50.942;3.644;2023-04-26T02:12:48;101973.56;;;0.22;100.00
52949;BME280;38812;50.942;3.644;2023-04-26T02:15:14;101975.25;;;0.20;100.00
52949;BME280;38812;50.942;3.644;2023-04-26T02:17:39;101962.03;;;0.13;100.00
52949;BME280;38812;50.942;3.644;2023-04-26T02:20:05;101973.31;;;0.15;100.00
52949;BME280;38812;50.942;3.644;2023-04-26T02:22:33;101975.88;;;0.15;100.00
52949;BME280;38812;50.942;3.644;2023-04-26T02:24:58;101968.94;;;0.14;100.00
52949;BME280;38812;50.942;3.644;2023-04-26T02:27:24;101963.47;;;0.06;100.00
52949;BME280;38812;50.942;3.644;2023-04-26T02:29:49;101959.25;;;0.08;100.00
52949;BME280;38812;50.942;3.644;2023-04-26T02:32:15;101955.84;;;0.09;100.00
52949;BME280;38812;50.942;3.644;2023-04-26T02:34:41;101963.16;;;0.19;100.00
52949;BME280;38812;50.942;3.644;2023-04-26T02:37:07;101968.38;;;0.21;100.00
52949;BME280;38812;50.942;3.644;2023-04-26T02:39:33;101970.03;;;0.19;100.00
52949;BME280;38812;50.942;3.644;2023-04-26T02:41:58;101975.00;;;0.37;100.00
52949;BME280;38812;50.942;3.644;2023-04-26T02:44:24;101961.44;;;0.42;100.00
52949;BME280;38812;50.942;3.644;2023-04-26T02:46:49;101953.84;;;0.24;100.00
52949;BME280;38812;50.942;3.644;2023-04-26T02:49:14;101954.91;;;0.29;100.00
52949;BME280;38812;50.942;3.644;2023-04-26T02:51:40;101961.72;;;0.27;100.00
52949;BME280;38812;50.942;3.644;2023-04-26T02:54:06;101946.50;;;0.13;100.00
52949;BME280;38812;50.942;3.644;2023-04-26T02:56:31;101958.19;;;0.25;100.00
52949;BME280;38812;50.942;3.644;2023-04-26T02:58:56;101965.94;;;0.25;100.00
52949;BME280;38812;50.942;3.644;2023-04-26T03:01:22;101967.50;;;0.20;100.00
52949;BME280;38812;50.942;3.644;2023-04-26T03:03:47;101971.53;;;0.14;100.00
52949;BME280;38812;50.942;3.644;2023-04-26T03:06:13;101965.41;;;0.12;100.00
52949;BME280;38812;50.942;3.644;2023-04-26T03:08:38;101961.31;;;0.17;100.00
52949;BME280;38812;50.942;3.644;2023-04-26T03:11:04;101957.19;;;0.22;100.00
52949;BME280;38812;50.942;3.644;2023-04-26T03:13:29;101962.78;;;0.10;100.00
52949;BME280;38812;50.942;3.644;2023-04-26T03:15:54;101953.69;;;-0.03;100.00
52949;BME280;38812;50.942;3.644;2023-04-26T03:18:20;101960.41;;;-0.06;100.00
52949;BME280;38812;50.942;3.644;2023-04-26T03:20:45;101960.22;;;-0.11;100.00
52949;BME280;38812;50.942;3.644;2023-04-26T03:23:11;101960.16;;;-0.12;100.00
52949;BME280;38812;50.942;3.644;2023-04-26T03:25:36;101948.06;;;-0.13;100.00
52949;BME280;38812;50.942;3.644;2023-04-26T03:28:02;101951.47;;;-0.14;100.00
52949;BME280;38812;50.942;3.644;2023-04-26T03:30:28;101931.38;;;-0.21;100.00
52949;BME280;38812;50.942;3.644;2023-04-26T03:32:54;101935.97;;;-0.14;100.00
52949;BME280;38812;50.942;3.644;2023-04-26T03:35:20;101936.22;;;-0.08;100.00
52949;BME280;38812;50.942;3.644;2023-04-26T03:37:45;101934.47;;;0.13;100.00
52949;BME280;38812;50.942;3.644;2023-04-26T03:40:11;101937.22;;;0.40;100.00
52949;BME280;38812;50.942;3.644;2023-04-26T03:42:36;101939.88;;;0.19;100.00
52949;BME280;38812;50.942;3.644;2023-04-26T03:45:02;101943.03;;;0.12;100.00
52949;BME280;38812;50.942;3.644;2023-04-26T03:47:29;101946.44;;;0.11;100.00
52949;BME280;38812;50.942;3.644;2023-04-26T03:49:54;101950.81;;;0.12;100.00
52949;BME280;38812;50.942;3.644;2023-04-26T03:52:20;101954.09;;;0.30;100.00
52949;BME280;38812;50.942;3.644;2023-04-26T03:54:45;101940.91;;;0.24;100.00
52949;BME280;38812;50.942;3.644;2023-04-26T03:57:10;101938.94;;;0.17;100.00
52949;BME280;38812;50.942;3.644;2023-04-26T03:59:36;101939.63;;;0.36;100.00
52949;BME280;38812;50.942;3.644;2023-04-26T04:02:02;101940.75;;;0.42;100.00
52949;BME280;38812;50.942;3.644;2023-04-26T04:04:27;101941.88;;;0.26;100.00
52949;BME280;38812;50.942;3.644;2023-04-26T04:06:53;101951.38;;;0.27;100.00
52949;BME280;38812;50.942;3.644;2023-04-26T04:09:18;101946.09;;;0.24;100.00
52949;BME280;38812;50.942;3.644;2023-04-26T04:11:43;101938.34;;;0.24;100.00
52949;BME280;38812;50.942;3.644;2023-04-26T04:14:09;101937.38;;;0.21;100.00
52949;BME280;38812;50.942;3.644;2023-04-26T04:16:35;101931.13;;;0.16;100.00
52949;BME280;38812;50.942;3.644;2023-04-26T04:19:00;101923.06;;;0.08;100.00
52949;BME280;38812;50.942;3.644;2023-04-26T04:21:26;101936.19;;;0.13;100.00
52949;BME280;38812;50.942;3.644;2023-04-26T04:23:52;101939.59;;;0.12;100.00
52949;BME280;38812;50.942;3.644;2023-04-26T04:26:17;101930.94;;;0.11;100.00
52949;BME280;38812;50.942;3.644;2023-04-26T04:28:43;101923.06;;;0.08;100.00
52949;BME280;38812;50.942;3.644;2023-04-26T04:31:09;101929.44;;;0.16;100.00
52949;BME280;38812;50.942;3.644;2023-04-26T04:33:35;101916.91;;;0.27;100.00
52949;BME280;38812;50.942;3.644;2023-04-26T04:36:01;101939.94;;;0.67;100.00
52949;BME280;38812;50.942;3.644;2023-04-26T04:38:26;101938.91;;;0.62;100.00
52949;BME280;38812;50.942;3.644;2023-04-26T04:40:51;101939.66;;;0.59;100.00
52949;BME280;38812;50.942;3.644;2023-04-26T04:43:17;101929.94;;;0.76;100.00
52949;BME280;38812;50.942;3.644;2023-04-26T04:45:43;101925.69;;;0.78;100.00
52949;BME280;38812;50.942;3.644;2023-04-26T04:48:09;101939.22;;;0.71;100.00
52949;BME280;38812;50.942;3.644;2023-04-26T04:50:35;101932.81;;;0.60;100.00
52949;BME280;38812;50.942;3.644;2023-04-26T04:53:01;101928.84;;;0.47;100.00
52949;BME280;38812;50.942;3.644;2023-04-26T04:55:26;101941.09;;;0.51;100.00
52949;BME280;38812;50.942;3.644;2023-04-26T04:57:52;101950.97;;;0.61;100.00
52949;BME280;38812;50.942;3.644;2023-04-26T05:00:18;101948.63;;;0.93;100.00
52949;BME280;38812;50.942;3.644;2023-04-26T05:02:44;101929.66;;;0.92;100.00
52949;BME280;38812;50.942;3.644;2023-04-26T05:05:10;101949.34;;;1.13;100.00
52949;BME280;38812;50.942;3.644;2023-04-26T05:07:35;101960.84;;;1.21;100.00
52949;BME280;38812;50.942;3.644;2023-04-26T05:10:01;101959.69;;;1.13;100.00
52949;BME280;38812;50.942;3.644;2023-04-26T05:12:27;101958.91;;;1.15;100.00
52949;BME280;38812;50.942;3.644;2023-04-26T05:14:52;101976.66;;;1.28;100.00
52949;BME280;38812;50.942;3.644;2023-04-26T05:17:18;101977.88;;;1.40;100.00
52949;BME280;38812;50.942;3.644;2023-04-26T05:19:43;101983.13;;;1.41;100.00
52949;BME280;38812;50.942;3.644;2023-04-26T05:22:08;101975.00;;;1.83;100.00
52949;BME280;38812;50.942;3.644;2023-04-26T05:24:34;101970.34;;;2.26;100.00
52949;BME280;38812;50.942;3.644;2023-04-26T05:26:59;101977.19;;;2.24;100.00
52949;BME280;38812;50.942;3.644;2023-04-26T05:29:28;101979.06;;;2.01;100.00
52949;BME280;38812;50.942;3.644;2023-04-26T05:31:54;101967.97;;;2.05;100.00
52949;BME280;38812;50.942;3.644;2023-04-26T05:34:19;101980.78;;;2.56;100.00
52949;BME280;38812;50.942;3.644;2023-04-26T05:36:45;101977.16;;;2.51;100.00
52949;BME280;38812;50.942;3.644;2023-04-26T05:39:10;101975.63;;;2.29;100.00
52949;BME280;38812;50.942;3.644;2023-04-26T05:41:36;101990.06;;;2.50;100.00
52949;BME280;38812;50.942;3.644;2023-04-26T05:44:02;101997.81;;;3.39;100.00
52949;BME280;38812;50.942;3.644;2023-04-26T05:46:27;101979.97;;;4.63;100.00
52949;BME280;38812;50.942;3.644;2023-04-26T05:48:53;101987.19;;;5.18;100.00
52949;BME280;38812;50.942;3.644;2023-04-26T05:51:19;101985.75;;;4.90;100.00
52949;BME280;38812;50.942;3.644;2023-04-26T05:53:45;101967.19;;;4.34;100.00
52949;BME280;38812;50.942;3.644;2023-04-26T05:56:10;101970.22;;;4.15;100.00
52949;BME280;38812;50.942;3.644;2023-04-26T05:58:36;101970.16;;;4.12;100.00
52949;BME280;38812;50.942;3.644;2023-04-26T06:01:01;101978.09;;;4.18;100.00
52949;BME280;38812;50.942;3.644;2023-04-26T06:03:26;101979.06;;;4.22;100.00
52949;BME280;38812;50.942;3.644;2023-04-26T06:05:52;101979.63;;;4.08;100.00
52949;BME280;38812;50.942;3.644;2023-04-26T06:08:17;101971.41;;;3.92;100.00
52949;BME280;38812;50.942;3.644;2023-04-26T06:10:42;101985.88;;;3.81;100.00
52949;BME280;38812;50.942;3.644;2023-04-26T06:13:08;101980.69;;;3.81;100.00
52949;BME280;38812;50.942;3.644;2023-04-26T06:15:33;101960.00;;;3.85;100.00
52949;BME280;38812;50.942;3.644;2023-04-26T06:17:58;101973.00;;;3.85;100.00
52949;BME280;38812;50.942;3.644;2023-04-26T06:20:24;101983.38;;;4.21;100.00
52949;BME280;38812;50.942;3.644;2023-04-26T06:22:50;101985.19;;;4.24;100.00
52949;BME280;38812;50.942;3.644;2023-04-26T06:25:15;101987.88;;;4.28;100.00
52949;BME280;38812;50.942;3.644;2023-04-26T06:27:41;101975.00;;;4.34;100.00
52949;BME280;38812;50.942;3.644;2023-04-26T06:30:06;101991.97;;;4.55;100.00
52949;BME280;38812;50.942;3.644;2023-04-26T06:32:32;101978.94;;;4.55;100.00
52949;BME280;38812;50.942;3.644;2023-04-26T06:34:58;101986.25;;;4.72;100.00
52949;BME280;38812;50.942;3.644;2023-04-26T06:37:23;101983.56;;;4.68;100.00
52949;BME280;38812;50.942;3.644;2023-04-26T06:39:48;101980.97;;;4.69;100.00
52949;BME280;38812;50.942;3.644;2023-04-26T06:42:14;101973.94;;;4.65;100.00
52949;BME280;38812;50.942;3.644;2023-04-26T06:44:39;101986.50;;;4.85;100.00
52949;BME280;38812;50.942;3.644;2023-04-26T06:47:04;101986.59;;;4.89;100.00
52949;BME280;38812;50.942;3.644;2023-04-26T06:49:34;101989.19;;;4.89;100.00
52949;BME280;38812;50.942;3.644;2023-04-26T06:51:59;101976.97;;;4.85;100.00
52949;BME280;38812;50.942;3.644;2023-04-26T06:54:28;101988.81;;;5.13;100.00
52949;BME280;38812;50.942;3.644;2023-04-26T06:56:53;101986.47;;;5.27;100.00
52949;BME280;38812;50.942;3.644;2023-04-26T06:59:19;101990.38;;;5.50;100.00
52949;BME280;38812;50.942;3.644;2023-04-26T07:01:44;102001.16;;;5.71;100.00
52949;BME280;38812;50.942;3.644;2023-04-26T07:04:09;101986.25;;;6.14;100.00
52949;BME280;38812;50.942;3.644;2023-04-26T07:06:36;101969.97;;;6.32;100.00
52949;BME280;38812;50.942;3.644;2023-04-26T07:09:02;101973.72;;;6.50;100.00
52949;BME280;38812;50.942;3.644;2023-04-26T07:11:28;101972.03;;;6.56;100.00
52949;BME280;38812;50.942;3.644;2023-04-26T07:13:54;101979.03;;;6.57;100.00
52949;BME280;38812;50.942;3.644;2023-04-26T07:16:20;101974.75;;;6.62;100.00
52949;BME280;38812;50.942;3.644;2023-04-26T07:18:45;101974.66;;;6.56;100.00
52949;BME280;38812;50.942;3.644;2023-04-26T07:21:13;101981.78;;;6.66;100.00
52949;BME280;38812;50.942;3.644;2023-04-26T07:23:38;101986.44;;;6.90;100.00
52949;BME280;38812;50.942;3.644;2023-04-26T07:26:03;101979.72;;;7.13;100.00
52949;BME280;38812;50.942;3.644;2023-04-26T07:28:30;101973.41;;;7.82;100.00
52949;BME280;38812;50.942;3.644;2023-04-26T07:30:56;101965.72;;;7.99;100.00
52949;BME280;38812;50.942;3.644;2023-04-26T07:33:22;101963.91;;;7.91;100.00
52949;BME280;38812;50.942;3.644;2023-04-26T07:35:57;101961.34;;;8.04;100.00
52949;BME280;38812;50.942;3.644;2023-04-26T07:38:25;101970.91;;;7.94;100.00
52949;BME280;38812;50.942;3.644;2023-04-26T07:40:51;101971.13;;;8.29;100.00
52949;BME280;38812;50.942;3.644;2023-04-26T07:43:17;101973.00;;;8.39;100.00
52949;BME280;38812;50.942;3.644;2023-04-26T07:45:42;101962.72;;;8.91;100.00
52949;BME280;38812;50.942;3.644;2023-04-26T07:48:08;101978.56;;;9.20;100.00
52949;BME280;38812;50.942;3.644;2023-04-26T07:50:33;101962.88;;;9.47;100.00
52949;BME280;38812;50.942;3.644;2023-04-26T07:52:59;101962.88;;;9.31;100.00
52949;BME280;38812;50.942;3.644;2023-04-26T07:55:24;101959.34;;;9.35;100.00
52949;BME280;38812;50.942;3.644;2023-04-26T07:57:50;101954.16;;;9.68;100.00
52949;BME280;38812;50.942;3.644;2023-04-26T08:00:16;101955.91;;;9.84;100.00
52949;BME280;38812;50.942;3.644;2023-04-26T08:02:43;101957.63;;;10.37;100.00
52949;BME280;38812;50.942;3.644;2023-04-26T08:05:10;101956.75;;;10.29;100.00
52949;BME280;38812;50.942;3.644;2023-04-26T08:07:36;101950.66;;;9.93;100.00
52949;BME280;38812;50.942;3.644;2023-04-26T08:10:01;101955.00;;;10.04;100.00
52949;BME280;38812;50.942;3.644;2023-04-26T08:12:26;101949.75;;;9.96;100.00
52949;BME280;38812;50.942;3.644;2023-04-26T08:14:52;101951.50;;;10.12;100.00
52949;BME280;38812;50.942;3.644;2023-04-26T08:17:17;101964.66;;;9.89;100.00
52949;BME280;38812;50.942;3.644;2023-04-26T08:19:43;101959.38;;;10.32;100.00
52949;BME280;38812;50.942;3.644;2023-04-26T08:22:08;101961.13;;;10.09;100.00
52949;BME280;38812;50.942;3.644;2023-04-26T08:24:34;101960.25;;;10.17;100.00
52949;BME280;38812;50.942;3.644;2023-04-26T08:26:59;101952.31;;;10.55;100.00
52949;BME280;38812;50.942;3.644;2023-04-26T08:29:25;101951.34;;;10.70;100.00
52949;BME280;38812;50.942;3.644;2023-04-26T08:31:52;101948.53;;;11.13;100.00
52949;BME280;38812;50.942;3.644;2023-04-26T08:34:17;101946.63;;;12.37;98.92
52949;BME280;38812;50.942;3.644;2023-04-26T08:36:43;101952.56;;;13.23;95.40
52949;BME280;38812;50.942;3.644;2023-04-26T08:39:10;101934.81;;;12.72;90.59
52949;BME280;38812;50.942;3.644;2023-04-26T08:41:42;101945.59;;;12.50;76.88
52949;BME280;38812;50.942;3.644;2023-04-26T08:44:08;101939.66;;;13.00;74.02
52949;BME280;38812;50.942;3.644;2023-04-26T08:46:39;101951.59;;;12.63;74.46
52949;BME280;38812;50.942;3.644;2023-04-26T08:49:38;101947.63;;;13.62;71.24
52949;BME280;38812;50.942;3.644;2023-04-26T08:52:08;101943.34;;;13.53;72.29
52949;BME280;38812;50.942;3.644;2023-04-26T08:54:35;101938.72;;;11.38;81.73
52949;BME280;38812;50.942;3.644;2023-04-26T08:57:01;101939.44;;;11.59;75.45
52949;BME280;38812;50.942;3.644;2023-04-26T08:59:33;101930.84;;;11.34;78.62
52949;BME280;38812;50.942;3.644;2023-04-26T09:02:00;101948.94;;;12.66;79.40
52949;BME280;38812;50.942;3.644;2023-04-26T09:04:27;101932.91;;;13.44;77.25
52949;BME280;38812;50.942;3.644;2023-04-26T09:06:55;101941.09;;;12.58;70.32
52949;BME280;38812;50.942;3.644;2023-04-26T09:09:24;101933.09;;;12.66;73.25
52949;BME280;38812;50.942;3.644;2023-04-26T09:11:55;101935.66;;;12.75;72.17
52949;BME280;38812;50.942;3.644;2023-04-26T09:14:22;101938.25;;;11.98;74.25
52949;BME280;38812;50.942;3.644;2023-04-26T09:16:48;101930.38;;;11.95;70.89
52949;BME280;38812;50.942;3.644;2023-04-26T09:19:13;101935.78;;;11.74;77.73
52949;BME280;38812;50.942;3.644;2023-04-26T09:21:45;101935.09;;;13.18;68.47
52949;BME280;38812;50.942;3.644;2023-04-26T09:24:11;101945.84;;;12.99;64.76
52949;BME280;38812;50.942;3.644;2023-04-26T09:26:37;101938.34;;;12.69;68.34
52949;BME280;38812;50.942;3.644;2023-04-26T09:29:17;101941.09;;;12.60;68.59
52949;BME280;38812;50.942;3.644;2023-04-26T09:31:46;101940.31;;;12.53;72.19
52949;BME280;38812;50.942;3.644;2023-04-26T09:34:13;101938.59;;;12.49;66.33
52949;BME280;38812;50.942;3.644;2023-04-26T09:36:55;101939.53;;;12.42;69.61
52949;BME280;38812;50.942;3.644;2023-04-26T09:39:30;101953.59;;;13.13;68.87
52949;BME280;38812;50.942;3.644;2023-04-26T09:41:57;101921.22;;;13.62;69.13
52949;BME280;38812;50.942;3.644;2023-04-26T09:44:23;101922.16;;;13.56;62.33
52949;BME280;38812;50.942;3.644;2023-04-26T09:46:59;101924.47;;;13.76;61.19
52949;BME280;38812;50.942;3.644;2023-04-26T09:49:26;101925.50;;;13.66;61.89
52949;BME280;38812;50.942;3.644;2023-04-26T09:51:59;101924.69;;;14.13;59.22
52949;BME280;38812;50.942;3.644;2023-04-26T09:54:42;101930.84;;;14.14;58.03
52949;BME280;38812;50.942;3.644;2023-04-26T09:57:07;101926.25;;;15.47;58.58
52949;BME280;38812;50.942;3.644;2023-04-26T09:59:40;101915.97;;;14.96;54.08
52949;BME280;38812;50.942;3.644;2023-04-26T10:02:12;101916.44;;;15.15;53.30
52949;BME280;38812;50.942;3.644;2023-04-26T10:04:38;101910.56;;;15.37;54.95
52949;BME280;38812;50.942;3.644;2023-04-26T10:07:04;101917.91;;;14.46;56.87
52949;BME280;38812;50.942;3.644;2023-04-26T10:09:30;101909.06;;;15.64;56.25
52949;BME280;38812;50.942;3.644;2023-04-26T10:11:57;101902.59;;;15.39;56.20
52949;BME280;38812;50.942;3.644;2023-04-26T10:14:24;101916.50;;;15.49;55.82
52949;BME280;38812;50.942;3.644;2023-04-26T10:16:50;101905.84;;;14.30;52.87
52949;BME280;38812;50.942;3.644;2023-04-26T10:19:17;101900.25;;;14.48;56.55
52949;BME280;38812;50.942;3.644;2023-04-26T10:21:44;101898.22;;;15.01;54.71
52949;BME280;38812;50.942;3.644;2023-04-26T10:24:11;101893.13;;;15.30;58.93
52949;BME280;38812;50.942;3.644;2023-04-26T10:26:49;101902.59;;;16.41;55.21
52949;BME280;38812;50.942;3.644;2023-04-26T10:29:19;101892.34;;;15.96;53.47
52949;BME280;38812;50.942;3.644;2023-04-26T10:32:06;101878.69;;;17.01;53.12
52949;BME280;38812;50.942;3.644;2023-04-26T10:34:40;101881.16;;;15.85;58.02
52949;BME280;38812;50.942;3.644;2023-04-26T10:37:12;101883.06;;;14.24;61.01
52949;BME280;38812;50.942;3.644;2023-04-26T10:39:44;101883.31;;;14.97;58.74
52949;BME280;38812;50.942;3.644;2023-04-26T10:44:55;101887.22;;;14.36;60.68
52949;BME280;38812;50.942;3.644;2023-04-26T10:50:20;101874.97;;;15.51;55.11
52949;BME280;38812;50.942;3.644;2023-04-26T10:55:38;101874.25;;;16.43;52.45
52949;BME280;38812;50.942;3.644;2023-04-26T11:01:05;101860.06;;;15.11;54.78
52949;BME280;38812;50.942;3.644;2023-04-26T11:03:31;101866.94;;;14.80;56.65
52949;BME280;38812;50.942;3.644;2023-04-26T11:05:57;101855.09;;;15.68;54.52
52949;BME280;38812;50.942;3.644;2023-04-26T11:08:27;101862.78;;;15.79;54.17
52949;BME280;38812;50.942;3.644;2023-04-26T11:11:11;101881.16;;;14.31;53.59
52949;BME280;38812;50.942;3.644;2023-04-26T11:13:42;101872.94;;;14.88;49.32
52949;BME280;38812;50.942;3.644;2023-04-26T11:16:11;101870.78;;;15.40;51.14
52949;BME280;38812;50.942;3.644;2023-04-26T11:18:42;101854.16;;;14.60;56.34
52949;BME280;38812;50.942;3.644;2023-04-26T11:21:08;101871.25;;;13.97;57.89
52949;BME280;38812;50.942;3.644;2023-04-26T11:23:34;101874.84;;;14.38;54.43
52949;BME280;38812;50.942;3.644;2023-04-26T11:26:05;101859.59;;;14.94;53.32
52949;BME280;38812;50.942;3.644;2023-04-26T11:28:31;101859.53;;;14.55;55.13
52949;BME280;38812;50.942;3.644;2023-04-26T11:30:57;101859.91;;;14.37;54.87
52949;BME280;38812;50.942;3.644;2023-04-26T11:33:23;101860.22;;;13.76;56.60
52949;BME280;38812;50.942;3.644;2023-04-26T11:35:53;101860.56;;;13.56;54.74
52949;BME280;38812;50.942;3.644;2023-04-26T11:38:23;101863.00;;;12.51;55.09
52949;BME280;38812;50.942;3.644;2023-04-26T11:40:54;101868.19;;;12.57;58.58
52949;BME280;38812;50.942;3.644;2023-04-26T11:43:20;101867.69;;;12.28;58.36
52949;BME280;38812;50.942;3.644;2023-04-26T11:45:45;101859.38;;;12.60;57.90
52949;BME280;38812;50.942;3.644;2023-04-26T11:48:11;101859.00;;;12.86;55.87
52949;BME280;38812;50.942;3.644;2023-04-26T11:50:38;101855.22;;;13.03;55.83
52949;BME280;38812;50.942;3.644;2023-04-26T11:53:06;101851.66;;;13.63;55.91
52949;BME280;38812;50.942;3.644;2023-04-26T11:55:32;101854.00;;;13.78;54.22
52949;BME280;38812;50.942;3.644;2023-04-26T11:57:58;101852.28;;;14.22;55.54
52949;BME280;38812;50.942;3.644;2023-04-26T12:00:25;101857.16;;;13.98;52.98
52949;BME280;38812;50.942;3.644;2023-04-26T12:02:51;101860.22;;;14.22;53.93
52949;BME280;38812;50.942;3.644;2023-04-26T12:05:27;101855.03;;;14.17;53.18
52949;BME280;38812;50.942;3.644;2023-04-26T12:07:58;101843.16;;;13.93;54.60
52949;BME280;38812;50.942;3.644;2023-04-26T12:10:34;101858.91;;;13.50;53.67
52949;BME280;38812;50.942;3.644;2023-04-26T12:13:00;101856.00;;;13.10;54.63
52949;BME280;38812;50.942;3.644;2023-04-26T12:15:32;101846.31;;;13.64;51.75
52949;BME280;38812;50.942;3.644;2023-04-26T12:18:08;101842.72;;;13.19;55.17
52949;BME280;38812;50.942;3.644;2023-04-26T12:20:43;101858.97;;;13.46;55.69
52949;BME280;38812;50.942;3.644;2023-04-26T12:23:15;101860.13;;;13.29;54.85
52949;BME280;38812;50.942;3.644;2023-04-26T12:25:53;101856.25;;;12.95;55.42
52949;BME280;38812;50.942;3.644;2023-04-26T12:28:20;101861.97;;;13.24;58.50
52949;BME280;38812;50.942;3.644;2023-04-26T12:30:46;101862.69;;;13.35;57.54
52949;BME280;38812;50.942;3.644;2023-04-26T12:33:11;101870.47;;;12.83;55.09
52949;BME280;38812;50.942;3.644;2023-04-26T12:35:37;101859.56;;;13.08;59.15
52949;BME280;38812;50.942;3.644;2023-04-26T12:38:03;101856.47;;;13.40;58.71
52949;BME280;38812;50.942;3.644;2023-04-26T12:40:28;101867.22;;;13.26;53.88
52949;BME280;38812;50.942;3.644;2023-04-26T12:42:56;101853.78;;;13.41;52.51
52949;BME280;38812;50.942;3.644;2023-04-26T12:45:23;101847.16;;;13.68;53.57
52949;BME280;38812;50.942;3.644;2023-04-26T12:47:49;101851.69;;;13.61;51.16
52949;BME280;38812;50.942;3.644;2023-04-26T12:50:15;101858.47;;;13.75;51.00
52949;BME280;38812;50.942;3.644;2023-04-26T12:52:41;101847.19;;;14.11;54.13
52949;BME280;38812;50.942;3.644;2023-04-26T12:55:12;101845.56;;;14.50;54.90
52949;BME280;38812;50.942;3.644;2023-04-26T12:57:39;101843.00;;;15.23;54.91
52949;BME280;38812;50.942;3.644;2023-04-26T13:00:08;101842.06;;;15.25;52.16